sensor_id;sensor_type;location;lat;lon;timestamp;temperature;humidity
64937;SHT30;51452;47.698;19.050;2024-02-26T00:00:12;10.88;82.62
64937;SHT30;51452;47.698;19.050;2024-02-26T00:03:37;10.92;82.46
64937;SHT30;51452;47.698;19.050;2024-02-26T00:06:04;10.92;82.47
64937;SHT30;51452;47.698;19.050;2024-02-26T00:08:29;10.91;82.56
64937;SHT30;51452;47.698;19.050;2024-02-26T00:10:55;10.91;82.55
64937;SHT30;51452;47.698;19.050;2024-02-26T00:13:20;10.89;82.62
64937;SHT30;51452;47.698;19.050;2024-02-26T00:15:47;10.91;82.42
64937;SHT30;51452;47.698;19.050;2024-02-26T00:18:13;10.91;82.46
64937;SHT30;51452;47.698;19.050;2024-02-26T00:20:39;10.86;82.69
64937;SHT30;51452;47.698;19.050;2024-02-26T00:23:05;10.89;82.47
64937;SHT30;51452;47.698;19.050;2024-02-26T00:25:30;10.83;82.63
64937;SHT30;51452;47.698;19.050;2024-02-26T00:27:56;10.85;82.53
64937;SHT30;51452;47.698;19.050;2024-02-26T00:30:22;10.83;82.62
64937;SHT30;51452;47.698;19.050;2024-02-26T00:32:48;10.89;82.28
64937;SHT30;51452;47.698;19.050;2024-02-26T00:35:13;10.89;82.42
64937;SHT30;51452;47.698;19.050;2024-02-26T00:37:40;10.92;82.28
64937;SHT30;51452;47.698;19.050;2024-02-26T00:40:08;10.82;82.53
64937;SHT30;51452;47.698;19.050;2024-02-26T00:42:34;10.97;82.20
64937;SHT30;51452;47.698;19.050;2024-02-26T00:44:59;10.96;82.37
64937;SHT30;51452;47.698;19.050;2024-02-26T00:47:24;10.95;82.29
64937;SHT30;51452;47.698;19.050;2024-02-26T00:49:50;10.97;82.33
64937;SHT30;51452;47.698;19.050;2024-02-26T00:52:15;10.95;82.12
64937;SHT30;51452;47.698;19.050;2024-02-26T00:54:40;10.86;82.68
64937;SHT30;51452;47.698;19.050;2024-02-26T00:57:06;10.95;82.21
64937;SHT30;51452;47.698;19.050;2024-02-26T00:59:31;10.96;82.15
64937;SHT30;51452;47.698;19.050;2024-02-26T01:01:57;10.86;82.37
64937;SHT30;51452;47.698;19.050;2024-02-26T01:04:26;10.91;82.31
64937;SHT30;51452;47.698;19.050;2024-02-26T01:06:52;10.89;82.20
64937;SHT30;51452;47.698;19.050;2024-02-26T01:09:17;10.79;82.52
64937;SHT30;51452;47.698;19.050;2024-02-26T01:11:43;10.89;82.27
64937;SHT30;51452;47.698;19.050;2024-02-26T01:14:08;10.75;82.94
64937;SHT30;51452;47.698;19.050;2024-02-26T01:16:34;10.85;82.56
64937;SHT30;51452;47.698;19.050;2024-02-26T01:18:59;10.80;82.50
64937;SHT30;51452;47.698;19.050;2024-02-26T01:21:25;10.83;82.37
64937;SHT30;51452;47.698;19.050;2024-02-26T01:23:52;10.88;82.35
64937;SHT30;51452;47.698;19.050;2024-02-26T01:26:17;10.88;82.32
64937;SHT30;51452;47.698;19.050;2024-02-26T01:28:42;10.83;82.38
64937;SHT30;51452;47.698;19.050;2024-02-26T01:31:09;10.89;82.14
64937;SHT30;51452;47.698;19.050;2024-02-26T01:33:36;10.88;82.19
64937;SHT30;51452;47.698;19.050;2024-02-26T01:36:01;10.80;82.42
64937;SHT30;51452;47.698;19.050;2024-02-26T01:38:27;10.88;82.26
64937;SHT30;51452;47.698;19.050;2024-02-26T01:40:53;10.85;82.27
64937;SHT30;51452;47.698;19.050;2024-02-26T01:43:18;10.85;82.40
64937;SHT30;51452;47.698;19.050;2024-02-26T01:45:44;10.88;82.43
64937;SHT30;51452;47.698;19.050;2024-02-26T01:48:09;10.89;82.40
64937;SHT30;51452;47.698;19.050;2024-02-26T01:50:36;10.86;82.44
64937;SHT30;51452;47.698;19.050;2024-02-26T01:53:03;10.86;82.38
64937;SHT30;51452;47.698;19.050;2024-02-26T01:55:29;10.85;82.47
64937;SHT30;51452;47.698;19.050;2024-02-26T01:57:55;10.88;82.51
64937;SHT30;51452;47.698;19.050;2024-02-26T02:00:21;10.83;82.43
64937;SHT30;51452;47.698;19.050;2024-02-26T02:02:47;10.77;82.55
64937;SHT30;51452;47.698;19.050;2024-02-26T02:05:19;10.83;82.27
64937;SHT30;51452;47.698;19.050;2024-02-26T02:07:45;10.86;82.37
64937;SHT30;51452;47.698;19.050;2024-02-26T02:10:14;10.86;82.40
64937;SHT30;51452;47.698;19.050;2024-02-26T02:12:40;10.83;82.25
64937;SHT30;51452;47.698;19.050;2024-02-26T02:15:06;10.82;82.25
64937;SHT30;51452;47.698;19.050;2024-02-26T02:17:31;10.80;82.57
64937;SHT30;51452;47.698;19.050;2024-02-26T02:19:57;10.82;82.45
64937;SHT30;51452;47.698;19.050;2024-02-26T02:22:22;10.83;82.53
64937;SHT30;51452;47.698;19.050;2024-02-26T02:24:49;10.85;82.41
64937;SHT30;51452;47.698;19.050;2024-02-26T02:27:15;10.80;82.46
64937;SHT30;51452;47.698;19.050;2024-02-26T02:29:41;10.86;82.34
64937;SHT30;51452;47.698;19.050;2024-02-26T02:32:06;10.88;82.27
64937;SHT30;51452;47.698;19.050;2024-02-26T02:34:32;10.86;82.29
64937;SHT30;51452;47.698;19.050;2024-02-26T02:36:59;10.88;82.17
64937;SHT30;51452;47.698;19.050;2024-02-26T02:39:24;10.88;82.21
64937;SHT30;51452;47.698;19.050;2024-02-26T02:41:49;10.79;82.16
64937;SHT30;51452;47.698;19.050;2024-02-26T02:44:15;10.88;82.09
64937;SHT30;51452;47.698;19.050;2024-02-26T02:46:40;10.80;82.17
64937;SHT30;51452;47.698;19.050;2024-02-26T02:49:09;10.72;82.27
64937;SHT30;51452;47.698;19.050;2024-02-26T02:51:37;10.77;82.13
64937;SHT30;51452;47.698;19.050;2024-02-26T02:54:03;10.66;82.31
64937;SHT30;51452;47.698;19.050;2024-02-26T02:56:29;10.80;82.07
64937;SHT30;51452;47.698;19.050;2024-02-26T02:58:54;10.73;82.27
64937;SHT30;51452;47.698;19.050;2024-02-26T03:01:20;10.75;82.22
64937;SHT30;51452;47.698;19.050;2024-02-26T03:03:45;10.76;82.30
64937;SHT30;51452;47.698;19.050;2024-02-26T03:06:11;10.77;82.24
64937;SHT30;51452;47.698;19.050;2024-02-26T03:08:36;10.73;82.32
64937;SHT30;51452;47.698;19.050;2024-02-26T03:11:04;10.79;82.23
64937;SHT30;51452;47.698;19.050;2024-02-26T03:13:29;10.77;82.07
64937;SHT30;51452;47.698;19.050;2024-02-26T03:15:55;10.73;82.27
64937;SHT30;51452;47.698;19.050;2024-02-26T03:18:20;10.77;82.15
64937;SHT30;51452;47.698;19.050;2024-02-26T03:20:46;10.80;81.94
64937;SHT30;51452;47.698;19.050;2024-02-26T03:23:11;10.79;82.05
64937;SHT30;51452;47.698;19.050;2024-02-26T03:25:41;10.73;82.01
64937;SHT30;51452;47.698;19.050;2024-02-26T03:28:06;10.77;82.02
64937;SHT30;51452;47.698;19.050;2024-02-26T03:30:32;10.73;82.12
64937;SHT30;51452;47.698;19.050;2024-02-26T03:32:57;10.75;82.15
64937;SHT30;51452;47.698;19.050;2024-02-26T03:35:22;10.72;82.18
64937;SHT30;51452;47.698;19.050;2024-02-26T03:37:48;10.79;81.99
64937;SHT30;51452;47.698;19.050;2024-02-26T03:40:15;10.79;81.97
64937;SHT30;51452;47.698;19.050;2024-02-26T03:42:41;10.68;82.04
64937;SHT30;51452;47.698;19.050;2024-02-26T03:45:06;10.59;82.30
64937;SHT30;51452;47.698;19.050;2024-02-26T03:47:32;10.54;82.38
64937;SHT30;51452;47.698;19.050;2024-02-26T03:49:57;10.55;82.51
64937;SHT30;51452;47.698;19.050;2024-02-26T03:52:24;10.61;82.40
64937;SHT30;51452;47.698;19.050;2024-02-26T03:54:50;10.62;82.44
64937;SHT30;51452;47.698;19.050;2024-02-26T03:57:15;10.51;82.64
64937;SHT30;51452;47.698;19.050;2024-02-26T03:59:40;10.65;82.22
64937;SHT30;51452;47.698;19.050;2024-02-26T04:02:06;10.64;82.19
64937;SHT30;51452;47.698;19.050;2024-02-26T04:04:34;10.59;82.28
64937;SHT30;51452;47.698;19.050;2024-02-26T04:06:59;10.59;82.16
64937;SHT30;51452;47.698;19.050;2024-02-26T04:09:24;10.71;81.85
64937;SHT30;51452;47.698;19.050;2024-02-26T04:11:50;10.72;81.79
64937;SHT30;51452;47.698;19.050;2024-02-26T04:14:16;10.68;81.83
64937;SHT30;51452;47.698;19.050;2024-02-26T04:16:41;10.71;81.64
64937;SHT30;51452;47.698;19.050;2024-02-26T04:19:07;10.75;81.55
64937;SHT30;51452;47.698;19.050;2024-02-26T04:21:33;10.64;81.80
64937;SHT30;51452;47.698;19.050;2024-02-26T04:23:58;10.61;81.67
64937;SHT30;51452;47.698;19.050;2024-02-26T04:26:27;10.66;81.70
64937;SHT30;51452;47.698;19.050;2024-02-26T04:28:52;10.61;81.97
64937;SHT30;51452;47.698;19.050;2024-02-26T04:31:18;10.61;82.01
64937;SHT30;51452;47.698;19.050;2024-02-26T04:33:44;10.68;81.59
64937;SHT30;51452;47.698;19.050;2024-02-26T04:36:15;10.65;81.54
64937;SHT30;51452;47.698;19.050;2024-02-26T04:38:42;10.71;81.39
64937;SHT30;51452;47.698;19.050;2024-02-26T04:41:08;10.61;82.13
64937;SHT30;51452;47.698;19.050;2024-02-26T04:43:33;10.62;81.56
64937;SHT30;51452;47.698;19.050;2024-02-26T04:45:59;10.59;81.78
64937;SHT30;51452;47.698;19.050;2024-02-26T04:48:24;10.55;81.97
64937;SHT30;51452;47.698;19.050;2024-02-26T04:50:53;10.48;82.02
64937;SHT30;51452;47.698;19.050;2024-02-26T04:53:18;10.30;82.27
64937;SHT30;51452;47.698;19.050;2024-02-26T04:55:44;10.33;82.25
64937;SHT30;51452;47.698;19.050;2024-02-26T04:58:09;10.22;82.61
64937;SHT30;51452;47.698;19.050;2024-02-26T05:00:35;10.24;82.85
64937;SHT30;51452;47.698;19.050;2024-02-26T05:03:01;10.14;83.17
64937;SHT30;51452;47.698;19.050;2024-02-26T05:05:26;10.07;83.55
64937;SHT30;51452;47.698;19.050;2024-02-26T05:07:52;10.05;83.50
64937;SHT30;51452;47.698;19.050;2024-02-26T05:10:17;9.95;84.14
64937;SHT30;51452;47.698;19.050;2024-02-26T05:12:42;9.91;84.58
64937;SHT30;51452;47.698;19.050;2024-02-26T05:15:09;9.87;84.64
64937;SHT30;51452;47.698;19.050;2024-02-26T05:17:35;9.95;84.35
64937;SHT30;51452;47.698;19.050;2024-02-26T05:20:00;10.01;84.26
64937;SHT30;51452;47.698;19.050;2024-02-26T05:22:26;9.79;84.97
64937;SHT30;51452;47.698;19.050;2024-02-26T05:24:51;9.86;84.81
64937;SHT30;51452;47.698;19.050;2024-02-26T05:27:17;9.84;84.89
64937;SHT30;51452;47.698;19.050;2024-02-26T05:29:42;9.93;84.79
64937;SHT30;51452;47.698;19.050;2024-02-26T05:32:08;10.05;84.36
64937;SHT30;51452;47.698;19.050;2024-02-26T05:34:33;10.17;84.16
64937;SHT30;51452;47.698;19.050;2024-02-26T05:36:59;10.25;83.70
64937;SHT30;51452;47.698;19.050;2024-02-26T05:39:24;10.31;83.54
64937;SHT30;51452;47.698;19.050;2024-02-26T05:41:50;10.38;83.29
64937;SHT30;51452;47.698;19.050;2024-02-26T05:44:15;10.41;83.14
64937;SHT30;51452;47.698;19.050;2024-02-26T05:46:41;10.48;82.96
64937;SHT30;51452;47.698;19.050;2024-02-26T05:49:07;10.56;82.65
64937;SHT30;51452;47.698;19.050;2024-02-26T05:51:33;10.56;82.74
64937;SHT30;51452;47.698;19.050;2024-02-26T05:53:58;10.65;82.39
64937;SHT30;51452;47.698;19.050;2024-02-26T05:56:23;10.59;82.63
64937;SHT30;51452;47.698;19.050;2024-02-26T05:58:49;10.58;82.75
64937;SHT30;51452;47.698;19.050;2024-02-26T06:01:16;10.64;82.48
64937;SHT30;51452;47.698;19.050;2024-02-26T06:03:42;10.72;82.27
64937;SHT30;51452;47.698;19.050;2024-02-26T06:06:07;10.69;82.45
64937;SHT30;51452;47.698;19.050;2024-02-26T06:08:33;10.75;82.27
64937;SHT30;51452;47.698;19.050;2024-02-26T06:10:58;10.80;82.26
64937;SHT30;51452;47.698;19.050;2024-02-26T06:13:24;10.85;82.05
64937;SHT30;51452;47.698;19.050;2024-02-26T06:15:49;10.82;82.16
64937;SHT30;51452;47.698;19.050;2024-02-26T06:18:14;10.88;82.01
64937;SHT30;51452;47.698;19.050;2024-02-26T06:20:41;10.89;81.98
64937;SHT30;51452;47.698;19.050;2024-02-26T06:23:07;10.80;82.12
64937;SHT30;51452;47.698;19.050;2024-02-26T06:25:32;10.89;81.99
64937;SHT30;51452;47.698;19.050;2024-02-26T06:27:58;10.88;82.14
64937;SHT30;51452;47.698;19.050;2024-02-26T06:30:23;10.91;82.04
64937;SHT30;51452;47.698;19.050;2024-02-26T06:32:49;10.92;81.91
64937;SHT30;51452;47.698;19.050;2024-02-26T06:35:15;10.96;81.92
64937;SHT30;51452;47.698;19.050;2024-02-26T06:37:40;10.91;81.80
64937;SHT30;51452;47.698;19.050;2024-02-26T06:40:06;10.99;81.67
64937;SHT30;51452;47.698;19.050;2024-02-26T06:42:35;11.00;81.65
64937;SHT30;51452;47.698;19.050;2024-02-26T06:45:01;10.97;81.94
64937;SHT30;51452;47.698;19.050;2024-02-26T06:47:26;11.02;81.88
64937;SHT30;51452;47.698;19.050;2024-02-26T06:49:52;10.96;81.96
64937;SHT30;51452;47.698;19.050;2024-02-26T06:52:17;11.03;81.74
64937;SHT30;51452;47.698;19.050;2024-02-26T06:54:43;11.02;81.87
64937;SHT30;51452;47.698;19.050;2024-02-26T06:57:08;11.03;81.74
64937;SHT30;51452;47.698;19.050;2024-02-26T06:59:33;11.07;81.60
64937;SHT30;51452;47.698;19.050;2024-02-26T07:01:59;11.04;81.81
64937;SHT30;51452;47.698;19.050;2024-02-26T07:04:24;11.03;81.81
64937;SHT30;51452;47.698;19.050;2024-02-26T07:06:49;11.14;81.75
64937;SHT30;51452;47.698;19.050;2024-02-26T07:09:15;11.19;81.50
64937;SHT30;51452;47.698;19.050;2024-02-26T07:11:41;11.12;81.93
64937;SHT30;51452;47.698;19.050;2024-02-26T07:14:12;11.17;81.57
64937;SHT30;51452;47.698;19.050;2024-02-26T07:16:37;11.16;81.51
64937;SHT30;51452;47.698;19.050;2024-02-26T07:19:03;11.24;81.50
64937;SHT30;51452;47.698;19.050;2024-02-26T07:21:28;11.27;81.65
64937;SHT30;51452;47.698;19.050;2024-02-26T07:23:54;11.19;81.91
64937;SHT30;51452;47.698;19.050;2024-02-26T07:26:19;11.33;81.37
64937;SHT30;51452;47.698;19.050;2024-02-26T07:28:46;11.34;81.50
64937;SHT30;51452;47.698;19.050;2024-02-26T07:31:11;11.44;81.24
64937;SHT30;51452;47.698;19.050;2024-02-26T07:33:36;11.38;81.58
64937;SHT30;51452;47.698;19.050;2024-02-26T07:36:02;11.45;81.34
64937;SHT30;51452;47.698;19.050;2024-02-26T07:38:28;11.54;81.28
64937;SHT30;51452;47.698;19.050;2024-02-26T07:40:53;11.54;81.27
64937;SHT30;51452;47.698;19.050;2024-02-26T07:43:19;11.63;81.11
64937;SHT30;51452;47.698;19.050;2024-02-26T07:45:44;11.64;81.08
64937;SHT30;51452;47.698;19.050;2024-02-26T07:48:09;11.71;80.60
64937;SHT30;51452;47.698;19.050;2024-02-26T07:50:35;11.71;80.40
64937;SHT30;51452;47.698;19.050;2024-02-26T07:53:00;11.74;80.50
64937;SHT30;51452;47.698;19.050;2024-02-26T07:55:26;11.78;80.38
64937;SHT30;51452;47.698;19.050;2024-02-26T07:57:51;11.89;80.32
64937;SHT30;51452;47.698;19.050;2024-02-26T08:00:17;11.91;80.25
64937;SHT30;51452;47.698;19.050;2024-02-26T08:02:43;11.88;79.79
64937;SHT30;51452;47.698;19.050;2024-02-26T08:05:09;11.86;79.80
64937;SHT30;51452;47.698;19.050;2024-02-26T08:07:34;11.95;80.32
64937;SHT30;51452;47.698;19.050;2024-02-26T08:10:00;11.99;79.94
64937;SHT30;51452;47.698;19.050;2024-02-26T08:12:25;12.01;80.20
64937;SHT30;51452;47.698;19.050;2024-02-26T08:14:51;12.02;79.96
64937;SHT30;51452;47.698;19.050;2024-02-26T08:17:16;11.99;79.88
64937;SHT30;51452;47.698;19.050;2024-02-26T08:19:41;11.98;80.40
64937;SHT30;51452;47.698;19.050;2024-02-26T08:22:07;12.06;79.91
64937;SHT30;51452;47.698;19.050;2024-02-26T08:24:33;11.89;79.68
64937;SHT30;51452;47.698;19.050;2024-02-26T08:26:58;11.96;79.83
64937;SHT30;51452;47.698;19.050;2024-02-26T08:29:23;11.98;80.05
64937;SHT30;51452;47.698;19.050;2024-02-26T08:31:49;12.06;79.84
64937;SHT30;51452;47.698;19.050;2024-02-26T08:34:14;12.14;79.94
64937;SHT30;51452;47.698;19.050;2024-02-26T08:36:40;12.18;79.98
64937;SHT30;51452;47.698;19.050;2024-02-26T08:39:06;12.18;79.62
64937;SHT30;51452;47.698;19.050;2024-02-26T08:41:32;12.22;79.72
64937;SHT30;51452;47.698;19.050;2024-02-26T08:43:57;12.29;79.45
64937;SHT30;51452;47.698;19.050;2024-02-26T08:46:23;12.37;79.19
64937;SHT30;51452;47.698;19.050;2024-02-26T08:48:48;12.36;78.98
64937;SHT30;51452;47.698;19.050;2024-02-26T08:51:14;12.32;79.07
64937;SHT30;51452;47.698;19.050;2024-02-26T08:53:40;12.37;79.07
64937;SHT30;51452;47.698;19.050;2024-02-26T08:56:06;12.42;79.10
64937;SHT30;51452;47.698;19.050;2024-02-26T08:58:31;12.53;78.53
64937;SHT30;51452;47.698;19.050;2024-02-26T09:00:57;12.57;78.45
64937;SHT30;51452;47.698;19.050;2024-02-26T09:03:23;12.52;78.29
64937;SHT30;51452;47.698;19.050;2024-02-26T09:05:48;12.47;78.57
64937;SHT30;51452;47.698;19.050;2024-02-26T09:08:14;12.53;78.47
64937;SHT30;51452;47.698;19.050;2024-02-26T09:10:39;12.46;78.26
64937;SHT30;51452;47.698;19.050;2024-02-26T09:13:05;12.39;78.99
64937;SHT30;51452;47.698;19.050;2024-02-26T09:15:30;12.42;79.15
64937;SHT30;51452;47.698;19.050;2024-02-26T09:17:56;12.42;79.17
64937;SHT30;51452;47.698;19.050;2024-02-26T09:20:22;12.39;79.55
64937;SHT30;51452;47.698;19.050;2024-02-26T09:22:49;12.46;79.22
64937;SHT30;51452;47.698;19.050;2024-02-26T09:25:16;12.59;79.17
64937;SHT30;51452;47.698;19.050;2024-02-26T09:27:45;12.59;79.06
64937;SHT30;51452;47.698;19.050;2024-02-26T09:30:11;12.56;79.21
64937;SHT30;51452;47.698;19.050;2024-02-26T09:32:37;12.64;78.95
64937;SHT30;51452;47.698;19.050;2024-02-26T09:35:03;12.57;78.99
64937;SHT30;51452;47.698;19.050;2024-02-26T09:37:29;12.53;79.03
64937;SHT30;51452;47.698;19.050;2024-02-26T09:39:54;12.56;79.17
64937;SHT30;51452;47.698;19.050;2024-02-26T09:42:20;12.59;79.44
64937;SHT30;51452;47.698;19.050;2024-02-26T09:44:45;12.73;79.32
64937;SHT30;51452;47.698;19.050;2024-02-26T09:47:14;12.74;79.26
64937;SHT30;51452;47.698;19.050;2024-02-26T09:49:42;12.85;78.96
64937;SHT30;51452;47.698;19.050;2024-02-26T09:52:08;12.97;78.82
64937;SHT30;51452;47.698;19.050;2024-02-26T09:54:35;13.08;78.44
64937;SHT30;51452;47.698;19.050;2024-02-26T09:57:02;13.15;78.00
64937;SHT30;51452;47.698;19.050;2024-02-26T09:59:29;13.26;77.91
64937;SHT30;51452;47.698;19.050;2024-02-26T10:01:58;13.41;77.39
64937;SHT30;51452;47.698;19.050;2024-02-26T10:04:26;13.46;77.44
64937;SHT30;51452;47.698;19.050;2024-02-26T10:06:52;13.46;78.18
64937;SHT30;51452;47.698;19.050;2024-02-26T10:09:18;13.61;77.63
64937;SHT30;51452;47.698;19.050;2024-02-26T10:11:44;13.76;77.24
64937;SHT30;51452;47.698;19.050;2024-02-26T10:14:10;13.83;77.26
64937;SHT30;51452;47.698;19.050;2024-02-26T10:16:37;13.75;77.67
64937;SHT30;51452;47.698;19.050;2024-02-26T10:19:02;13.69;77.43
64937;SHT30;51452;47.698;19.050;2024-02-26T10:21:28;13.69;77.38
64937;SHT30;51452;47.698;19.050;2024-02-26T10:23:53;13.65;77.39
64937;SHT30;51452;47.698;19.050;2024-02-26T10:26:20;13.70;77.48
64937;SHT30;51452;47.698;19.050;2024-02-26T10:28:46;13.67;76.86
64937;SHT30;51452;47.698;19.050;2024-02-26T10:31:13;13.70;77.34
64937;SHT30;51452;47.698;19.050;2024-02-26T10:33:39;13.76;76.63
64937;SHT30;51452;47.698;19.050;2024-02-26T10:36:07;13.85;76.74
64937;SHT30;51452;47.698;19.050;2024-02-26T10:38:36;13.79;77.20
64937;SHT30;51452;47.698;19.050;2024-02-26T10:41:03;13.83;77.06
64937;SHT30;51452;47.698;19.050;2024-02-26T10:43:28;13.79;77.08
64937;SHT30;51452;47.698;19.050;2024-02-26T10:45:55;13.76;76.38
64937;SHT30;51452;47.698;19.050;2024-02-26T10:48:21;13.93;76.39
64937;SHT30;51452;47.698;19.050;2024-02-26T10:50:47;14.03;75.84
64937;SHT30;51452;47.698;19.050;2024-02-26T10:53:16;14.07;75.38
64937;SHT30;51452;47.698;19.050;2024-02-26T10:55:53;14.23;75.56
64937;SHT30;51452;47.698;19.050;2024-02-26T10:58:23;14.37;74.97
64937;SHT30;51452;47.698;19.050;2024-02-26T11:00:51;14.49;74.95
64937;SHT30;51452;47.698;19.050;2024-02-26T11:03:18;14.49;74.00
64937;SHT30;51452;47.698;19.050;2024-02-26T11:05:49;14.60;74.46
64937;SHT30;51452;47.698;19.050;2024-02-26T11:08:17;14.68;74.14
64937;SHT30;51452;47.698;19.050;2024-02-26T11:10:43;14.64;73.85
64937;SHT30;51452;47.698;19.050;2024-02-26T11:13:14;14.69;73.26
64937;SHT30;51452;47.698;19.050;2024-02-26T11:15:39;14.69;73.74
64937;SHT30;51452;47.698;19.050;2024-02-26T11:18:06;14.78;73.84
64937;SHT30;51452;47.698;19.050;2024-02-26T11:20:33;14.76;73.83
64937;SHT30;51452;47.698;19.050;2024-02-26T11:22:59;14.89;73.63
64937;SHT30;51452;47.698;19.050;2024-02-26T11:25:25;14.88;73.42
64937;SHT30;51452;47.698;19.050;2024-02-26T11:27:54;14.67;71.97
64937;SHT30;51452;47.698;19.050;2024-02-26T11:30:28;14.75;72.93
64937;SHT30;51452;47.698;19.050;2024-02-26T11:32:55;14.81;72.98
64937;SHT30;51452;47.698;19.050;2024-02-26T11:35:21;14.76;72.75
64937;SHT30;51452;47.698;19.050;2024-02-26T11:37:56;14.93;73.03
64937;SHT30;51452;47.698;19.050;2024-02-26T11:40:24;14.92;72.83
64937;SHT30;51452;47.698;19.050;2024-02-26T11:42:50;14.91;72.58
64937;SHT30;51452;47.698;19.050;2024-02-26T11:48:06;15.12;72.05
64937;SHT30;51452;47.698;19.050;2024-02-26T11:50:38;15.06;71.49
64937;SHT30;51452;47.698;19.050;2024-02-26T11:53:20;15.09;70.51
64937;SHT30;51452;47.698;19.050;2024-02-26T11:55:45;15.06;71.17
64937;SHT30;51452;47.698;19.050;2024-02-26T11:58:10;15.12;71.75
64937;SHT30;51452;47.698;19.050;2024-02-26T12:00:36;15.12;71.69
64937;SHT30;51452;47.698;19.050;2024-02-26T12:03:02;15.12;70.64
64937;SHT30;51452;47.698;19.050;2024-02-26T12:05:34;15.02;71.22
64937;SHT30;51452;47.698;19.050;2024-02-26T12:08:06;14.95;71.86
64937;SHT30;51452;47.698;19.050;2024-02-26T12:10:33;14.89;71.74
64937;SHT30;51452;47.698;19.050;2024-02-26T12:13:14;14.95;71.76
64937;SHT30;51452;47.698;19.050;2024-02-26T12:15:44;14.81;72.61
64937;SHT30;51452;47.698;19.050;2024-02-26T12:18:15;14.84;72.31
64937;SHT30;51452;47.698;19.050;2024-02-26T12:20:45;14.78;72.84
64937;SHT30;51452;47.698;19.050;2024-02-26T12:23:15;14.75;72.26
64937;SHT30;51452;47.698;19.050;2024-02-26T12:25:43;14.74;72.56
64937;SHT30;51452;47.698;19.050;2024-02-26T12:28:09;14.63;72.55
64937;SHT30;51452;47.698;19.050;2024-02-26T12:30:35;14.68;71.93
64937;SHT30;51452;47.698;19.050;2024-02-26T12:33:01;14.61;72.74
64937;SHT30;51452;47.698;19.050;2024-02-26T12:35:30;14.74;72.45
64937;SHT30;51452;47.698;19.050;2024-02-26T12:37:57;14.71;72.27
64937;SHT30;51452;47.698;19.050;2024-02-26T12:40:23;14.69;72.84
64937;SHT30;51452;47.698;19.050;2024-02-26T12:42:49;14.69;72.08
64937;SHT30;51452;47.698;19.050;2024-02-26T12:45:15;14.74;72.84
64937;SHT30;51452;47.698;19.050;2024-02-26T12:47:42;14.71;71.93
64937;SHT30;51452;47.698;19.050;2024-02-26T12:50:09;14.72;72.02
64937;SHT30;51452;47.698;19.050;2024-02-26T12:52:37;14.69;72.71
64937;SHT30;51452;47.698;19.050;2024-02-26T12:55:05;14.72;71.97
64937;SHT30;51452;47.698;19.050;2024-02-26T12:57:36;14.68;71.98
64937;SHT30;51452;47.698;19.050;2024-02-26T13:00:03;14.69;72.30
64937;SHT30;51452;47.698;19.050;2024-02-26T13:02:30;14.69;72.53
64937;SHT30;51452;47.698;19.050;2024-02-26T13:04:57;14.71;72.41
64937;SHT30;51452;47.698;19.050;2024-02-26T13:07:22;14.69;72.68
64937;SHT30;51452;47.698;19.050;2024-02-26T13:09:48;14.69;72.15
64937;SHT30;51452;47.698;19.050;2024-02-26T13:12:13;14.72;72.23
64937;SHT30;51452;47.698;19.050;2024-02-26T13:14:40;14.81;72.12
64937;SHT30;51452;47.698;19.050;2024-02-26T13:17:05;14.89;71.44
64937;SHT30;51452;47.698;19.050;2024-02-26T13:19:31;15.00;71.32
64937;SHT30;51452;47.698;19.050;2024-02-26T13:22:03;15.07;71.32
64937;SHT30;51452;47.698;19.050;2024-02-26T13:24:29;15.10;71.24
64937;SHT30;51452;47.698;19.050;2024-02-26T13:26:56;15.13;71.28
64937;SHT30;51452;47.698;19.050;2024-02-26T13:29:22;15.06;70.91
64937;SHT30;51452;47.698;19.050;2024-02-26T13:31:48;15.00;70.55
64937;SHT30;51452;47.698;19.050;2024-02-26T13:34:26;14.91;71.12
64937;SHT30;51452;47.698;19.050;2024-02-26T13:36:53;14.86;70.19
64937;SHT30;51452;47.698;19.050;2024-02-26T13:39:23;14.92;70.45
64937;SHT30;51452;47.698;19.050;2024-02-26T13:41:50;14.92;70.98
64937;SHT30;51452;47.698;19.050;2024-02-26T13:44:15;15.00;71.22
64937;SHT30;51452;47.698;19.050;2024-02-26T13:46:41;14.99;70.37
64937;SHT30;51452;47.698;19.050;2024-02-26T13:49:08;14.96;70.11
64937;SHT30;51452;47.698;19.050;2024-02-26T13:51:34;14.99;69.60
64937;SHT30;51452;47.698;19.050;2024-02-26T13:54:01;14.98;69.67
64937;SHT30;51452;47.698;19.050;2024-02-26T13:56:27;14.89;69.96
64937;SHT30;51452;47.698;19.050;2024-02-26T13:58:52;14.96;69.55
64937;SHT30;51452;47.698;19.050;2024-02-26T14:01:18;14.93;68.72
64937;SHT30;51452;47.698;19.050;2024-02-26T14:03:43;14.95;68.97
64937;SHT30;51452;47.698;19.050;2024-02-26T14:06:09;14.88;68.07
64937;SHT30;51452;47.698;19.050;2024-02-26T14:08:34;14.79;67.97
64937;SHT30;51452;47.698;19.050;2024-02-26T14:11:00;14.86;68.11
64937;SHT30;51452;47.698;19.050;2024-02-26T14:13:25;14.91;67.81
64937;SHT30;51452;47.698;19.050;2024-02-26T14:15:51;14.93;68.06
64937;SHT30;51452;47.698;19.050;2024-02-26T14:18:16;14.92;68.02
64937;SHT30;51452;47.698;19.050;2024-02-26T14:20:41;14.91;68.35
64937;SHT30;51452;47.698;19.050;2024-02-26T14:23:07;14.86;67.97
64937;SHT30;51452;47.698;19.050;2024-02-26T14:25:33;14.86;67.77
64937;SHT30;51452;47.698;19.050;2024-02-26T14:27:59;14.67;67.76
64937;SHT30;51452;47.698;19.050;2024-02-26T14:30:25;14.72;67.74
64937;SHT30;51452;47.698;19.050;2024-02-26T14:32:53;14.72;68.47
64937;SHT30;51452;47.698;19.050;2024-02-26T14:35:19;14.71;68.43
64937;SHT30;51452;47.698;19.050;2024-02-26T14:37:45;14.69;68.11
64937;SHT30;51452;47.698;19.050;2024-02-26T14:40:14;14.72;67.74
64937;SHT30;51452;47.698;19.050;2024-02-26T14:42:40;14.61;68.14
64937;SHT30;51452;47.698;19.050;2024-02-26T14:45:06;14.58;68.41
64937;SHT30;51452;47.698;19.050;2024-02-26T14:47:35;14.55;68.92
64937;SHT30;51452;47.698;19.050;2024-02-26T14:50:01;14.54;69.02
64937;SHT30;51452;47.698;19.050;2024-02-26T14:52:26;14.49;69.07
64937;SHT30;51452;47.698;19.050;2024-02-26T14:54:51;14.51;69.06
64937;SHT30;51452;47.698;19.050;2024-02-26T14:57:17;14.42;68.71
64937;SHT30;51452;47.698;19.050;2024-02-26T14:59:42;14.41;69.15
64937;SHT30;51452;47.698;19.050;2024-02-26T15:02:09;14.41;69.51
64937;SHT30;51452;47.698;19.050;2024-02-26T15:04:35;14.24;71.23
64937;SHT30;51452;47.698;19.050;2024-02-26T15:07:01;14.23;72.34
64937;SHT30;51452;47.698;19.050;2024-02-26T15:09:26;14.28;72.62
64937;SHT30;51452;47.698;19.050;2024-02-26T15:11:52;13.93;74.64
64937;SHT30;51452;47.698;19.050;2024-02-26T15:14:17;13.85;75.17